Time;durP1;ratioP1;P1;durP2;ratioP2;P2;SDS_P1;SDS_P2;PMS_P1;PMS_P2;Temp;Humidity;BMP_temperature;BMP_pressure;BME280_temperature;BME280_humidity;BME280_pressure;Samples;Min_cycle;Max_cycle;Signal;HPM_P1;HPM_P2
2022/07/02 00:01:00;;;;;;;7.40;4.70;;;;;;;20.82;68.28;100084.63;1833093;77;21011;-75
2022/07/02 00:03:36;;;;;;;4.85;4.33;;;;;;;20.78;68.35;100079.38;1820087;78;21078;-72
2022/07/02 00:06:04;;;;;;;5.87;4.90;;;;;;;20.71;68.57;100074.62;1832386;77;21059;-72
2022/07/02 00:08:33;;;;;;;6.60;4.75;;;;;;;20.66;68.81;100081.21;1833035;76;21064;-74
2022/07/02 00:11:00;;;;;;;6.58;4.45;;;;;;;20.65;68.54;100085.79;1812494;76;21056;-75
2022/07/02 00:13:27;;;;;;;5.37;4.30;;;;;;;20.72;68.24;100091.09;1833092;77;20944;-73
2022/07/02 00:15:54;;;;;;;5.67;4.50;;;;;;;20.69;68.27;100092.92;1834999;77;21049;-72
2022/07/02 00:18:20;;;;;;;7.72;5.25;;;;;;;20.66;67.99;100093.36;1815901;76;21062;-74
2022/07/02 00:20:47;;;;;;;5.20;4.42;;;;;;;20.64;68.23;100092.77;1817274;77;20987;-74
2022/07/02 00:23:13;;;;;;;5.10;4.08;;;;;;;20.63;68.04;100089.25;1829981;77;21187;-72
2022/07/02 00:25:43;;;;;;;5.87;5.28;;;;;;;20.60;68.57;100093.73;1833080;78;21531;-72
2022/07/02 00:28:12;;;;;;;5.80;5.17;;;;;;;20.54;68.72;100095.95;1831897;77;20988;-74
2022/07/02 00:30:39;;;;;;;6.45;5.00;;;;;;;20.47;68.87;100102.76;1833386;77;21019;-72
2022/07/02 00:33:06;;;;;;;7.60;4.70;;;;;;;20.41;68.74;100101.78;1829939;76;21121;-72
2022/07/02 00:35:32;;;;;;;7.87;5.05;;;;;;;20.38;69.32;100097.38;1833209;77;21198;-72
2022/07/02 00:38:01;;;;;;;5.62;5.12;;;;;;;20.32;69.37;100100.95;1828924;77;21102;-72
2022/07/02 00:40:28;;;;;;;5.42;4.92;;;;;;;20.34;69.46;100100.20;1808508;76;21534;-72
2022/07/02 00:42:55;;;;;;;7.95;4.87;;;;;;;20.44;69.22;100099.18;1833306;76;21480;-72
2022/07/02 00:45:22;;;;;;;10.43;5.80;;;;;;;20.45;69.19;100099.99;1831993;78;20976;-75
2022/07/02 00:47:48;;;;;;;7.70;5.90;;;;;;;20.42;69.66;100099.93;1825273;76;21074;-73
2022/07/02 00:50:14;;;;;;;8.08;5.83;;;;;;;20.40;69.34;100102.03;1831222;76;21058;-72
2022/07/02 00:52:42;;;;;;;7.70;5.80;;;;;;;20.40;69.24;100100.68;1833934;77;21472;-74
2022/07/02 00:55:09;;;;;;;6.70;6.03;;;;;;;20.38;69.90;100098.20;1825030;77;21061;-72
2022/07/02 00:57:35;;;;;;;6.60;5.92;;;;;;;20.34;70.07;100102.89;1827166;78;21025;-74
2022/07/02 01:00:04;;;;;;;8.95;5.85;;;;;;;20.30;70.15;100099.00;1829187;78;21268;-72
2022/07/02 01:02:31;;;;;;;7.78;6.17;;;;;;;20.28;70.12;100107.84;1828117;77;21463;-73
2022/07/02 01:04:57;;;;;;;8.58;5.60;;;;;;;20.25;70.08;100105.61;1829390;78;21026;-73
2022/07/02 01:07:24;;;;;;;6.42;5.80;;;;;;;20.24;70.09;100107.46;1825639;77;21069;-74
2022/07/02 01:12:37;;;;;;;6.83;6.12;;;;;;;20.35;69.99;100119.41;1827964;78;20974;-73
2022/07/02 01:17:33;;;;;;;7.62;6.20;;;;;;;20.22;70.56;100131.14;1816214;77;21040;-73
2022/07/02 01:20:03;;;;;;;9.58;6.60;;;;;;;20.14;71.11;100131.42;1808211;77;21938;-74
2022/07/02 01:22:39;;;;;;;7.20;6.17;;;;;;;20.09;71.62;100127.20;1769416;78;21069;-73
2022/07/02 01:25:07;;;;;;;6.90;6.20;;;;;;;20.04;71.66;100131.92;1816713;79;21384;-71
2022/07/02 01:27:35;;;;;;;8.68;6.67;;;;;;;20.00;71.97;100126.68;1817537;79;21502;-71
2022/07/02 01:30:02;;;;;;;8.48;6.22;;;;;;;20.06;71.89;100122.28;1817806;78;21546;-72
2022/07/02 01:32:29;;;;;;;8.75;6.53;;;;;;;20.18;71.40;100132.09;1801995;77;21081;-73
2022/07/02 01:35:05;;;;;;;8.13;6.42;;;;;;;20.19;71.71;100129.72;1816140;78;21045;-73
2022/07/02 01:37:31;;;;;;;7.70;6.20;;;;;;;20.18;71.65;100138.84;1813268;78;21093;-71
2022/07/02 01:39:58;;;;;;;7.78;6.42;;;;;;;20.14;71.83;100135.47;1817613;79;21715;-73
2022/07/02 01:42:25;;;;;;;6.70;6.03;;;;;;;20.09;71.83;100142.05;1817662;79;20994;-73
2022/07/02 01:44:52;;;;;;;7.85;7.05;;;;;;;20.07;72.04;100140.09;1817598;78;21033;-71
2022/07/02 01:47:19;;;;;;;8.10;6.42;;;;;;;20.06;72.06;100140.62;1809491;77;21094;-73
2022/07/02 01:49:46;;;;;;;9.48;6.22;;;;;;;20.08;71.95;100140.41;1805998;78;21126;-72
2022/07/02 01:52:15;;;;;;;6.85;6.10;;;;;;;20.16;72.05;100146.33;1813972;78;21117;-72
2022/07/02 01:54:43;;;;;;;8.93;6.67;;;;;;;20.14;72.12;100138.17;1811966;77;21070;-73
2022/07/02 01:57:10;;;;;;;8.20;6.65;;;;;;;20.13;71.96;100144.63;1808569;79;21680;-74
2022/07/02 01:59:36;;;;;;;8.65;6.92;;;;;;;20.12;72.42;100147.00;1806510;79;21026;-75
2022/07/02 02:02:03;;;;;;;6.83;5.85;;;;;;;20.09;71.67;100148.78;1810557;79;21073;-74
2022/07/02 02:04:30;;;;;;;6.95;6.15;;;;;;;20.07;71.06;100147.69;1806348;77;21081;-71
2022/07/02 02:06:56;;;;;;;7.12;6.10;;;;;;;20.03;70.91;100145.13;1800973;79;21095;-73
2022/07/02 02:09:23;;;;;;;6.58;5.97;;;;;;;20.07;70.57;100157.12;1809122;77;21054;-73
2022/07/02 02:11:50;;;;;;;6.42;5.75;;;;;;;20.07;70.13;100159.81;1810225;79;21070;-74
2022/07/02 02:14:16;;;;;;;5.80;5.30;;;;;;;20.08;69.98;100164.15;1802930;77;21599;-72
2022/07/02 02:16:42;;;;;;;7.03;5.47;;;;;;;20.15;69.87;100167.62;1810616;79;21049;-74
2022/07/02 02:19:11;;;;;;;7.12;5.87;;;;;;;20.27;69.19;100165.56;1783467;79;21078;-73
2022/07/02 02:21:37;;;;;;;5.10;4.62;;;;;;;20.27;68.87;100160.16;1808320;77;21014;-72
2022/07/02 02:24:05;;;;;;;6.12;5.53;;;;;;;20.28;68.41;100167.19;1786180;77;21632;-73
2022/07/02 02:26:32;;;;;;;5.65;5.00;;;;;;;20.30;68.75;100163.25;1794497;79;21932;-73
2022/07/02 02:28:58;;;;;;;5.58;4.40;;;;;;;20.31;68.24;100162.19;1803669;77;21038;-75
2022/07/02 02:31:24;;;;;;;7.40;4.97;;;;;;;20.32;68.00;100163.00;1796802;79;21085;-76
2022/07/02 02:33:51;;;;;;;8.75;5.20;;;;;;;20.31;67.70;100158.14;1800808;79;21022;-73
2022/07/02 02:36:17;;;;;;;5.12;4.58;;;;;;;20.32;67.76;100157.61;1785152;79;21018;-74
2022/07/02 02:38:46;;;;;;;5.67;4.85;;;;;;;20.30;67.60;100160.55;1803861;79;21209;-74
2022/07/02 02:41:13;;;;;;;6.25;5.00;;;;;;;20.31;67.64;100168.11;1810275;77;21040;-71
2022/07/02 02:43:42;;;;;;;5.40;4.60;;;;;;;20.29;67.70;100165.63;1791658;79;21058;-72
2022/07/02 02:46:09;;;;;;;6.35;4.78;;;;;;;20.29;67.96;100168.86;1806710;77;21098;-71
2022/07/02 02:48:36;;;;;;;5.97;4.50;;;;;;;20.28;67.84;100172.09;1810478;79;21053;-73
2022/07/02 02:51:04;;;;;;;5.83;4.75;;;;;;;20.28;67.67;100167.19;1809375;77;21417;-73
2022/07/02 02:53:31;;;;;;;6.85;4.70;;;;;;;20.29;67.66;100166.98;1804505;79;21062;-74
2022/07/02 02:55:59;;;;;;;6.37;4.60;;;;;;;20.30;67.54;100174.54;1808994;78;21061;-73
2022/07/02 02:58:26;;;;;;;6.70;4.90;;;;;;;20.29;67.19;100168.86;1818018;79;21028;-73
2022/07/02 03:00:53;;;;;;;5.40;4.80;;;;;;;20.29;67.00;100172.37;1816722;78;21010;-73
2022/07/02 03:03:20;;;;;;;5.62;5.05;;;;;;;20.32;67.39;100184.58;1817884;78;21118;-76
2022/07/02 03:05:46;;;;;;;6.80;4.80;;;;;;;20.33;67.67;100187.59;1810734;77;21066;-73
2022/07/02 03:08:13;;;;;;;7.17;4.87;;;;;;;20.34;67.44;100183.84;1789788;79;21017;-75
2022/07/02 03:10:41;;;;;;;5.65;5.08;;;;;;;20.33;67.41;100184.91;1798906;77;21011;-73
2022/07/02 03:13:09;;;;;;;7.08;4.87;;;;;;;20.33;67.24;100188.41;1815465;77;21538;-75
2022/07/02 03:15:35;;;;;;;4.45;4.05;;;;;;;20.35;67.25;100189.55;1795825;79;21472;-73
2022/07/02 03:18:03;;;;;;;5.65;5.05;;;;;;;20.36;67.15;100196.08;1816149;77;21522;-73
2022/07/02 03:20:31;;;;;;;5.65;4.47;;;;;;;20.40;67.14;100191.07;1817829;77;21076;-75
2022/07/02 03:22:58;;;;;;;5.00;4.15;;;;;;;20.41;67.09;100200.27;1817947;78;21046;-73
2022/07/02 03:25:26;;;;;;;6.30;4.65;;;;;;;20.45;66.89;100205.23;1817988;78;21018;-74
2022/07/02 03:27:54;;;;;;;5.37;4.35;;;;;;;20.47;67.05;100202.61;1808256;77;21175;-73
2022/07/02 03:30:20;;;;;;;6.90;4.40;;;;;;;20.49;66.77;100198.34;1805477;79;21049;-74
2022/07/02 03:32:48;;;;;;;8.10;4.75;;;;;;;20.52;66.49;100200.08;1817880;77;21062;-73
2022/07/02 03:35:15;;;;;;;5.28;4.60;;;;;;;20.56;66.55;100204.52;1813889;77;21030;-76
2022/07/02 03:37:41;;;;;;;6.65;4.47;;;;;;;20.58;66.71;100204.58;1817889;79;21006;-75
2022/07/02 03:40:08;;;;;;;5.08;4.58;;;;;;;20.62;66.37;100209.05;1812411;79;21760;-74
2022/07/02 03:42:36;;;;;;;6.35;4.47;;;;;;;20.65;66.43;100201.02;1812064;77;21038;-75
2022/07/02 03:45:04;;;;;;;6.22;5.62;;;;;;;20.70;66.51;100210.63;1816048;79;21089;-75
2022/07/02 03:47:30;;;;;;;5.20;4.70;;;;;;;20.70;66.60;100207.40;1815582;78;21037;-73
2022/07/02 03:49:57;;;;;;;7.15;4.90;;;;;;;20.72;66.12;100204.48;1817945;79;21339;-72
2022/07/02 03:52:23;;;;;;;5.28;4.78;;;;;;;20.73;66.10;100199.39;1797597;77;21450;-73
2022/07/02 03:54:50;;;;;;;7.47;4.97;;;;;;;20.74;65.98;100199.68;1817688;77;20995;-71
2022/07/02 03:57:16;;;;;;;5.45;4.92;;;;;;;20.75;65.89;100202.16;1813753;78;21548;-72
2022/07/02 03:59:43;;;;;;;6.92;4.45;;;;;;;20.78;65.75;100194.13;1799980;78;21561;-73
2022/07/02 04:02:09;;;;;;;10.30;5.80;;;;;;;20.81;65.71;100194.51;1803587;77;21073;-72
2022/07/02 04:04:35;;;;;;;5.53;4.90;;;;;;;20.85;65.52;100188.67;1816580;78;21225;-73
2022/07/02 04:07:02;;;;;;;6.33;4.37;;;;;;;20.89;65.49;100185.28;1795683;77;21040;-74
2022/07/02 04:09:29;;;;;;;6.08;4.47;;;;;;;20.93;65.31;100189.19;1795063;79;21485;-74
2022/07/02 04:11:55;;;;;;;9.63;5.17;;;;;;;20.97;65.02;100190.38;1807027;77;21015;-74
2022/07/02 04:14:22;;;;;;;6.45;4.25;;;;;;;21.00;65.17;100199.92;1807654;77;21467;-74
2022/07/02 04:16:48;;;;;;;5.40;4.60;;;;;;;21.03;64.90;100205.39;1803290;77;21554;-73
2022/07/02 04:19:16;;;;;;;5.28;4.70;;;;;;;21.08;64.93;100205.55;1796378;79;21037;-73
2022/07/02 04:21:43;;;;;;;8.18;4.70;;;;;;;21.13;64.88;100207.88;1816616;78;21014;-74
2022/07/02 04:24:09;;;;;;;5.40;4.90;;;;;;;21.21;64.52;100208.09;1817939;79;21132;-73
2022/07/02 04:26:37;;;;;;;6.15;4.78;;;;;;;21.30;64.22;100206.70;1816851;78;21050;-75
2022/07/02 04:29:03;;;;;;;7.33;4.55;;;;;;;21.36;64.03;100201.77;1818040;79;21848;-73
2022/07/02 04:31:30;;;;;;;7.05;5.58;;;;;;;21.41;63.92;100208.64;1817164;77;21034;-71
2022/07/02 04:33:57;;;;;;;6.50;4.83;;;;;;;21.48;63.99;100214.52;1809916;77;21108;-75
2022/07/02 04:36:23;;;;;;;6.47;4.67;;;;;;;21.57;63.80;100216.67;1793608;77;21010;-73
2022/07/02 04:38:50;;;;;;;6.12;4.25;;;;;;;21.69;63.24;100214.55;1816562;79;21101;-74
2022/07/02 04:41:16;;;;;;;6.05;4.47;;;;;;;21.83;62.91;100217.88;1817845;79;22237;-72
2022/07/02 04:43:43;;;;;;;9.58;4.80;;;;;;;21.96;62.29;100213.11;1816912;78;21007;-72
2022/07/02 04:46:09;;;;;;;5.62;4.53;;;;;;;22.08;61.98;100223.95;1817904;79;21069;-73
2022/07/02 04:48:36;;;;;;;6.85;4.37;;;;;;;22.19;61.21;100220.95;1817523;78;21024;-72
2022/07/02 04:51:03;;;;;;;5.10;4.05;;;;;;;22.31;61.61;100227.77;1796009;77;21552;-73
2022/07/02 04:53:29;;;;;;;4.97;4.47;;;;;;;22.48;60.71;100234.67;1815206;78;21191;-73
2022/07/02 04:55:55;;;;;;;4.85;4.22;;;;;;;22.65;60.04;100232.91;1811834;77;20970;-74
2022/07/02 04:58:22;;;;;;;4.70;4.03;;;;;;;22.80;59.72;100233.80;1823028;78;20989;-72
2022/07/02 05:00:49;;;;;;;6.42;4.20;;;;;;;22.88;58.80;100235.31;1777900;79;21082;-74
2022/07/02 05:03:15;;;;;;;4.50;4.10;;;;;;;22.93;58.46;100237.61;1773128;79;21011;-74
2022/07/02 05:05:42;;;;;;;6.97;3.80;;;;;;;23.01;58.14;100237.78;1779807;80;21093;-75
2022/07/02 05:08:08;;;;;;;7.05;4.20;;;;;;;23.09;57.72;100237.44;1778590;80;21084;-76
2022/07/02 05:10:36;;;;;;;6.78;3.75;;;;;;;23.17;57.54;100237.59;1757801;80;21089;-73
2022/07/02 05:13:05;;;;;;;5.53;4.45;;;;;;;23.25;56.90;100247.23;1778202;80;21042;-74
2022/07/02 05:15:32;;;;;;;7.45;4.62;;;;;;;23.24;56.55;100244.25;1775082;79;21081;-73
2022/07/02 05:17:59;;;;;;;4.35;3.95;;;;;;;23.25;56.45;100245.88;1779495;80;21208;-74
2022/07/02 05:20:27;;;;;;;10.38;4.87;;;;;;;23.26;56.42;100249.72;1778837;80;21058;-74
2022/07/02 05:22:54;;;;;;;6.03;4.15;;;;;;;23.29;56.44;100249.22;1777847;79;21065;-75
2022/07/02 05:25:21;;;;;;;4.72;3.90;;;;;;;23.42;56.44;100250.03;1768960;79;21077;-74
2022/07/02 05:27:47;;;;;;;5.28;4.22;;;;;;;23.64;56.23;100246.95;1764688;79;20990;-73
2022/07/02 05:30:15;;;;;;;5.65;4.50;;;;;;;23.84;55.49;100249.78;1758174;80;21081;-74
2022/07/02 05:32:42;;;;;;;10.50;4.30;;;;;;;23.89;55.35;100247.98;1778146;80;21069;-73
2022/07/02 05:35:09;;;;;;;8.35;4.03;;;;;;;23.93;55.07;100251.85;1779417;80;21045;-72
2022/07/02 05:37:36;;;;;;;5.53;4.08;;;;;;;23.98;54.98;100247.03;1779380;80;21648;-73
2022/07/02 05:40:03;;;;;;;4.85;3.83;;;;;;;24.05;54.96;100248.22;1773376;79;21650;-73
2022/07/02 05:42:30;;;;;;;8.38;4.40;;;;;;;24.08;54.40;100251.27;1773024;80;21539;-72
2022/07/02 05:44:57;;;;;;;5.92;3.72;;;;;;;24.02;54.35;100250.09;1777782;79;20990;-73
2022/07/02 05:47:23;;;;;;;5.30;4.28;;;;;;;23.96;54.38;100247.81;1778348;80;21007;-73
2022/07/02 05:49:50;;;;;;;7.53;3.80;;;;;;;23.92;54.41;100245.31;1778312;80;21033;-71
2022/07/02 05:52:17;;;;;;;5.25;4.10;;;;;;;23.88;54.64;100253.65;1779794;80;21065;-72
2022/07/02 05:54:44;;;;;;;4.40;3.85;;;;;;;23.84;54.15;100249.23;1778415;79;21227;-72
2022/07/02 05:57:12;;;;;;;4.55;3.90;;;;;;;23.80;54.06;100260.80;1758060;80;21065;-73
2022/07/02 05:59:38;;;;;;;6.05;4.22;;;;;;;23.82;54.38;100264.13;1813733;77;21593;-73
2022/07/02 06:02:05;;;;;;;6.15;4.17;;;;;;;23.86;54.58;100274.77;1795493;77;21045;-73
2022/07/02 06:04:32;;;;;;;5.78;4.00;;;;;;;23.89;53.96;100266.12;1816674;79;21447;-72
2022/07/02 06:11:21;;;;;;;6.15;4.42;;;;;;;23.91;53.72;100275.69;1805122;77;22694;-71
2022/07/02 06:13:48;;;;;;;10.20;4.62;;;;;;;23.93;53.91;100283.05;1785288;78;20997;-71
2022/07/02 06:16:14;;;;;;;5.85;3.75;;;;;;;24.01;53.75;100283.20;1791102;79;21742;-73
2022/07/02 06:18:40;;;;;;;5.50;3.98;;;;;;;24.11;53.85;100279.30;1792013;79;20954;-74
2022/07/02 06:21:07;;;;;;;7.80;4.30;;;;;;;24.19;53.52;100278.07;1791081;79;21004;-73
2022/07/02 06:23:34;;;;;;;7.28;4.42;;;;;;;24.20;53.22;100285.67;1790912;79;21003;-71
2022/07/02 06:26:00;;;;;;;6.12;4.30;;;;;;;24.20;53.37;100294.63;1778298;78;20926;-72
2022/07/02 06:28:27;;;;;;;6.50;4.28;;;;;;;24.23;53.32;100286.55;1792230;79;21590;-73
2022/07/02 06:30:53;;;;;;;9.20;3.98;;;;;;;24.28;53.04;100281.19;1789288;78;20946;-73
2022/07/02 06:33:20;;;;;;;7.35;3.70;;;;;;;24.31;52.99;100282.88;1778878;80;21044;-73
2022/07/02 06:35:46;;;;;;;4.70;4.28;;;;;;;24.38;52.95;100290.88;1749787;80;21028;-72
2022/07/02 06:38:15;;;;;;;6.22;4.12;;;;;;;24.39;53.00;100295.23;1785504;80;21041;-71
2022/07/02 06:40:41;;;;;;;7.50;3.83;;;;;;;24.41;52.28;100297.70;1790977;80;21790;-72
2022/07/02 06:43:08;;;;;;;8.15;4.08;;;;;;;24.45;51.99;100294.78;1791002;78;21512;-73
2022/07/02 06:45:34;;;;;;;5.87;3.98;;;;;;;24.48;52.02;100298.37;1784082;79;21549;-74
2022/07/02 06:48:01;;;;;;;5.75;4.58;;;;;;;24.50;52.03;100298.95;1788451;79;21061;-73
2022/07/02 06:50:28;;;;;;;5.25;4.55;;;;;;;24.50;52.22;100300.30;1792069;79;21021;-73
2022/07/02 06:52:54;;;;;;;7.58;3.85;;;;;;;24.52;52.06;100300.38;1791827;79;21239;-73
2022/07/02 06:55:21;;;;;;;4.58;3.87;;;;;;;24.57;52.10;100288.78;1784377;79;21041;-73
2022/07/02 06:57:49;;;;;;;7.55;4.42;;;;;;;24.63;52.00;100285.07;1779942;78;21072;-75
2022/07/02 07:00:16;;;;;;;6.95;4.05;;;;;;;24.70;51.69;100290.32;1792202;78;22037;-75
2022/07/02 07:02:45;;;;;;;8.03;4.78;;;;;;;24.75;51.64;100295.03;1762055;78;21486;-75
2022/07/02 07:05:13;;;;;;;9.85;4.60;;;;;;;24.79;51.42;100302.96;1792061;79;20999;-75
2022/07/02 07:07:39;;;;;;;6.15;4.08;;;;;;;24.84;51.28;100301.66;1792508;79;20994;-73
2022/07/02 07:10:06;;;;;;;5.42;4.28;;;;;;;24.89;51.08;100298.48;1788725;79;21104;-72
2022/07/02 07:12:34;;;;;;;7.03;4.45;;;;;;;24.94;50.90;100295.04;1768339;80;21545;-73
2022/07/02 07:15:04;;;;;;;6.78;3.90;;;;;;;24.99;50.32;100295.09;1774753;79;21417;-73
2022/07/02 07:17:29;;;;;;;6.85;4.08;;;;;;;25.01;50.65;100301.64;1780336;79;21252;-74
2022/07/02 07:19:56;;;;;;;4.95;3.67;;;;;;;25.04;50.44;100296.53;1780818;80;21019;-73
2022/07/02 07:22:23;;;;;;;5.22;4.17;;;;;;;25.06;50.63;100300.37;1778146;80;21031;-72
2022/07/02 07:24:50;;;;;;;7.40;4.55;;;;;;;25.10;50.29;100298.24;1772181;79;21002;-73
2022/07/02 07:27:18;;;;;;;5.28;3.98;;;;;;;25.15;50.01;100299.38;1777434;79;21086;-74
2022/07/02 07:29:44;;;;;;;6.97;3.70;;;;;;;25.19;49.83;100295.92;1780534;79;21490;-73
2022/07/02 07:32:11;;;;;;;5.53;3.90;;;;;;;25.24;49.96;100291.11;1778502;79;21474;-73
2022/07/02 07:34:37;;;;;;;5.05;3.60;;;;;;;25.29;49.82;100304.78;1780553;79;22112;-72
2022/07/02 07:37:04;;;;;;;4.97;3.52;;;;;;;25.33;48.93;100299.13;1783281;78;21038;-75
2022/07/02 07:39:31;;;;;;;4.47;3.33;;;;;;;25.35;48.02;100303.77;1780598;80;20998;-74
2022/07/02 07:41:58;;;;;;;5.85;3.40;;;;;;;25.36;47.84;100305.41;1779166;79;21102;-73
2022/07/02 07:44:24;;;;;;;4.85;3.60;;;;;;;25.39;47.51;100297.30;1779597;80;21506;-73
2022/07/02 07:46:51;;;;;;;6.28;3.70;;;;;;;25.42;47.52;100298.98;1780880;80;21555;-73
2022/07/02 07:49:17;;;;;;;6.35;3.42;;;;;;;25.47;47.53;100303.64;1772433;78;21151;-74
2022/07/02 07:51:44;;;;;;;4.17;3.70;;;;;;;25.52;47.52;100305.08;1751788;80;21030;-73
2022/07/02 07:54:10;;;;;;;6.75;3.75;;;;;;;25.56;47.71;100313.02;1779204;79;21192;-73
2022/07/02 07:56:41;;;;;;;5.90;3.90;;;;;;;25.63;46.99;100320.45;1773598;80;21041;-75
2022/07/02 07:59:06;;;;;;;6.60;3.87;;;;;;;25.62;47.16;100309.81;1759202;80;21084;-74
2022/07/02 08:01:33;;;;;;;6.10;4.20;;;;;;;25.61;46.85;100315.80;1779499;79;21018;-74
2022/07/02 08:03:59;;;;;;;6.35;3.95;;;;;;;25.61;46.68;100310.36;1776448;79;21034;-72
2022/07/02 08:06:26;;;;;;;4.67;3.22;;;;;;;25.62;46.84;100312.53;1758167;80;21570;-72
2022/07/02 08:08:53;;;;;;;8.13;3.75;;;;;;;25.63;46.63;100319.09;1780653;80;21058;-74
2022/07/02 08:11:19;;;;;;;5.65;3.62;;;;;;;25.64;46.22;100312.56;1780620;80;20987;-71
2022/07/02 08:13:47;;;;;;;5.08;3.75;;;;;;;25.57;46.25;100316.55;1780208;79;21026;-72
2022/07/02 08:16:13;;;;;;;9.08;3.45;;;;;;;25.56;46.76;100316.28;1756554;79;21053;-74
2022/07/02 08:18:40;;;;;;;7.47;3.60;;;;;;;25.62;46.71;100313.89;1746695;80;21527;-72
2022/07/02 08:21:07;;;;;;;4.92;3.35;;;;;;;25.73;46.84;100320.27;1779642;80;21022;-72
2022/07/02 08:23:36;;;;;;;4.05;3.52;;;;;;;25.82;46.74;100325.00;1778510;79;21085;-75
2022/07/02 08:26:02;;;;;;;7.75;3.67;;;;;;;25.90;46.19;100321.00;1780719;80;20998;-71
2022/07/02 08:28:29;;;;;;;5.67;3.67;;;;;;;25.95;46.26;100315.65;1780229;79;21526;-74
2022/07/02 08:30:56;;;;;;;5.85;3.83;;;;;;;26.04;46.14;100325.01;1780660;80;21529;-74
2022/07/02 08:33:24;;;;;;;8.43;3.98;;;;;;;26.09;46.20;100321.50;1780460;79;21014;-74
2022/07/02 08:35:50;;;;;;;5.03;3.45;;;;;;;26.18;46.09;100331.41;1769920;80;21058;-73
2022/07/02 08:38:17;;;;;;;4.55;3.72;;;;;;;26.24;46.32;100331.73;1770469;80;21078;-74
2022/07/02 08:40:45;;;;;;;4.80;3.60;;;;;;;26.31;45.71;100341.88;1765389;79;21080;-73
2022/07/02 08:43:12;;;;;;;6.65;3.60;;;;;;;26.31;45.20;100333.72;1764963;80;21111;-72
2022/07/02 08:45:43;;;;;;;7.70;4.08;;;;;;;26.37;45.39;100337.31;1780803;80;21054;-75
2022/07/02 08:48:12;;;;;;;4.45;3.67;;;;;;;26.48;45.75;100326.23;1780892;80;21002;-73
2022/07/02 08:50:40;;;;;;;7.87;4.17;;;;;;;26.64;44.63;100329.13;1780558;79;21062;-73
2022/07/02 08:53:06;;;;;;;3.70;3.40;;;;;;;26.78;44.44;100323.49;1770436;79;21022;-73
2022/07/02 08:55:35;;;;;;;4.35;3.52;;;;;;;26.96;44.11;100321.42;1779399;79;21786;-72
2022/07/02 08:58:01;;;;;;;8.20;4.05;;;;;;;27.10;43.08;100322.63;1776556;79;21005;-71
2022/07/02 09:00:28;;;;;;;5.60;3.70;;;;;;;27.23;42.73;100324.84;1781134;80;21081;-72
2022/07/02 09:02:56;;;;;;;7.78;3.80;;;;;;;27.35;42.50;100321.97;1780925;79;21030;-72
2022/07/02 09:05:25;;;;;;;5.03;3.72;;;;;;;27.49;42.29;100329.12;1780594;80;21015;-73
2022/07/02 09:07:51;;;;;;;4.70;3.62;;;;;;;27.63;41.93;100327.52;1758306;80;21801;-73
2022/07/02 09:10:20;;;;;;;7.67;3.20;;;;;;;27.83;41.65;100320.48;1771373;79;21121;-72
2022/07/02 09:12:47;;;;;;;5.90;3.45;;;;;;;28.07;41.20;100330.94;1777820;79;21017;-74
2022/07/02 09:15:14;;;;;;;4.95;4.55;;;;;;;28.31;40.34;100327.97;1777375;79;21062;-74
2022/07/02 09:17:42;;;;;;;3.95;3.55;;;;;;;28.53;40.58;100322.81;1780438;79;21546;-74
2022/07/02 09:20:12;;;;;;;5.10;4.15;;;;;;;28.79;40.03;100316.80;1780779;80;21086;-72
2022/07/02 09:22:45;;;;;;;4.22;2.92;;;;;;;29.06;39.47;100317.84;1759368;80;21022;-73
2022/07/02 09:25:18;;;;;;;6.95;3.58;;;;;;;29.34;39.47;100312.84;1777402;79;21708;-74
2022/07/02 09:27:45;;;;;;;3.50;3.00;;;;;;;29.77;39.21;100313.25;1779835;79;21044;-73
2022/07/02 09:30:15;;;;;;;5.17;3.70;;;;;;;30.27;37.95;100326.88;1770404;80;21624;-73
2022/07/02 09:32:44;;;;;;;4.45;3.55;;;;;;;30.72;37.39;100323.53;1743423;82;21741;-74
2022/07/02 09:35:22;;;;;;;3.60;3.15;;;;;;;31.21;36.91;100318.94;1732487;82;21090;-71
2022/07/02 09:37:50;;;;;;;5.47;3.45;;;;;;;31.80;36.14;100303.93;1732445;82;21041;-72
2022/07/02 09:40:17;;;;;;;4.37;3.20;;;;;;;32.39;35.11;100316.78;1723807;81;21027;-72
2022/07/02 09:42:47;;;;;;;7.30;3.55;;;;;;;32.90;34.49;100319.24;1738466;81;21061;-73
2022/07/02 09:45:14;;;;;;;3.70;3.35;;;;;;;33.40;33.43;100313.04;1742168;82;21522;-73
2022/07/02 09:47:48;;;;;;;4.33;3.05;;;;;;;33.78;33.15;100318.32;1741946;82;21085;-74
2022/07/02 09:50:17;;;;;;;3.35;3.02;;;;;;;34.29;32.72;100310.27;1743442;82;21057;-76
2022/07/02 09:52:55;;;;;;;4.83;2.90;;;;;;;34.92;32.06;100312.50;1740033;81;21006;-73
2022/07/02 09:55:30;;;;;;;4.00;3.62;;;;;;;35.36;30.39;100312.13;1700006;81;21019;-75
2022/07/02 09:58:00;;;;;;;6.22;3.90;;;;;;;35.51;30.25;100305.34;1707115;81;21491;-74
2022/07/02 10:00:29;;;;;;;6.30;3.10;;;;;;;35.72;30.08;100309.70;1724660;81;21058;-73
2022/07/02 10:02:57;;;;;;;4.85;3.25;;;;;;;35.81;30.21;100291.19;1740530;82;21034;-74
2022/07/02 10:05:26;;;;;;;3.47;3.12;;;;;;;36.03;30.05;100296.30;1739261;82;21082;-74
2022/07/02 10:07:55;;;;;;;4.50;3.08;;;;;;;36.30;29.64;100299.89;1740274;82;21014;-74
2022/07/02 10:10:42;;;;;;;3.30;3.00;;;;;;;36.59;29.24;100304.13;1740865;81;21126;-74
2022/07/02 10:13:07;;;;;;;3.20;2.90;;;;;;;36.84;29.03;100303.02;1725864;82;21101;-73
2022/07/02 10:15:36;;;;;;;4.45;3.12;;;;;;;37.09;28.90;100302.66;1739099;81;21077;-75
2022/07/02 10:18:03;;;;;;;5.97;3.27;;;;;;;37.36;28.10;100302.78;1723996;81;21046;-74
2022/07/02 10:20:33;;;;;;;3.65;2.98;;;;;;;37.41;28.29;100302.34;1745962;82;21097;-73
2022/07/02 10:23:05;;;;;;;3.98;2.77;;;;;;;37.83;27.92;100298.25;1743129;81;22139;-72
2022/07/02 10:25:33;;;;;;;6.67;3.72;;;;;;;38.27;27.73;100293.16;1722885;81;21101;-73
2022/07/02 10:28:00;;;;;;;3.95;3.00;;;;;;;38.62;27.58;100301.94;1736182;82;21052;-74
2022/07/02 10:30:31;;;;;;;3.20;2.90;;;;;;;38.95;27.03;100298.27;1727033;81;21015;-75
2022/07/02 10:33:20;;;;;;;2.87;2.67;;;;;;;39.13;26.75;100304.42;1744815;81;21101;-73
2022/07/02 10:35:48;;;;;;;5.03;2.80;;;;;;;39.14;26.41;100306.06;1744720;82;21738;-75
2022/07/02 10:38:15;;;;;;;3.67;2.98;;;;;;;39.04;26.19;100300.95;1747160;81;21042;-73
2022/07/02 10:40:48;;;;;;;3.65;2.70;;;;;;;39.04;26.17;100315.66;1720418;81;21046;-75
2022/07/02 10:43:18;;;;;;;3.60;3.30;;;;;;;38.99;26.24;100301.20;1717455;81;21043;-73
2022/07/02 10:45:45;;;;;;;3.08;2.70;;;;;;;39.16;26.07;100300.96;1709893;82;21065;-74
2022/07/02 10:48:13;;;;;;;4.22;3.30;;;;;;;39.46;26.14;100292.38;1722728;81;21741;-74
2022/07/02 10:50:43;;;;;;;3.83;3.37;;;;;;;39.87;25.83;100296.80;1747409;81;21038;-73
2022/07/02 10:53:13;;;;;;;6.75;3.10;;;;;;;40.09;25.45;100292.66;1745362;82;21089;-74
2022/07/02 10:55:43;;;;;;;4.70;2.62;;;;;;;40.26;25.70;100287.96;1724101;81;21680;-74
2022/07/02 10:58:19;;;;;;;4.33;2.70;;;;;;;40.41;25.47;100285.81;1732552;82;21038;-72
2022/07/02 11:00:46;;;;;;;3.22;3.00;;;;;;;40.47;25.40;100284.37;1745941;82;21195;-74
2022/07/02 11:03:26;;;;;;;6.72;3.20;;;;;;;40.52;25.16;100276.34;1745901;81;21003;-73
2022/07/02 11:06:01;;;;;;;3.17;2.87;;;;;;;40.57;25.10;100271.91;1745268;82;21049;-73
2022/07/02 11:08:39;;;;;;;7.40;3.20;;;;;;;40.26;25.37;100269.88;1749585;80;20998;-73
2022/07/02 11:11:06;;;;;;;4.50;3.17;;;;;;;40.14;25.23;100262.38;1725848;82;21054;-75
2022/07/02 11:13:36;;;;;;;3.02;2.60;;;;;;;40.33;25.26;100257.55;1738657;81;21239;-74
2022/07/02 11:16:03;;;;;;;5.53;3.10;;;;;;;40.50;25.20;100255.02;1744163;82;21070;-75
2022/07/02 11:18:30;;;;;;;6.08;3.00;;;;;;;40.57;24.98;100263.55;1694991;82;21042;-74
2022/07/02 11:20:57;;;;;;;3.37;2.90;;;;;;;40.63;25.01;100259.92;1741557;81;21041;-76
2022/07/02 11:23:23;;;;;;;3.83;3.20;;;;;;;40.80;24.88;100254.57;1733722;81;21022;-74
2022/07/02 11:25:50;;;;;;;4.85;3.12;;;;;;;40.91;25.05;100246.48;1744023;82;21613;-74
2022/07/02 11:28:16;;;;;;;4.47;2.77;;;;;;;40.95;24.86;100244.00;1728793;82;21052;-72
2022/07/02 11:30:44;;;;;;;4.45;3.10;;;;;;;40.92;25.04;100247.52;1733809;82;21058;-73
2022/07/02 11:33:14;;;;;;;3.90;3.10;;;;;;;40.81;24.75;100248.64;1746011;82;21074;-72
2022/07/02 11:35:43;;;;;;;2.75;2.52;;;;;;;40.96;24.74;100251.20;1745945;82;21565;-71